sensor_id;sensor_type;location;lat;lon;timestamp;P1;durP1;ratioP1;P2;durP2;ratioP2
12135;SDS011;6131;56.420;15.548;2022-09-01T15:20:39;0.50;;;0.50;;
12135;SDS011;6131;56.420;15.548;2022-09-01T15:23:16;0.60;;;0.60;;
12135;SDS011;6131;56.420;15.548;2022-09-01T15:25:43;0.73;;;0.60;;
12135;SDS011;6131;56.420;15.548;2022-09-01T15:28:09;0.85;;;0.60;;
12135;SDS011;6131;56.420;15.548;2022-09-01T15:30:36;0.60;;;0.60;;
12135;SDS011;6131;56.420;15.548;2022-09-01T15:33:03;5.57;;;0.63;;
12135;SDS011;6131;56.420;15.548;2022-09-01T15:35:29;1.73;;;0.80;;
12135;SDS011;6131;56.420;15.548;2022-09-01T15:37:56;0.82;;;0.50;;
12135;SDS011;6131;56.420;15.548;2022-09-01T15:40:23;0.73;;;0.63;;
12135;SDS011;6131;56.420;15.548;2022-09-01T15:42:49;0.68;;;0.60;;
12135;SDS011;6131;56.420;15.548;2022-09-01T15:45:18;0.60;;;0.55;;
12135;SDS011;6131;56.420;15.548;2022-09-01T15:47:44;0.80;;;0.50;;
12135;SDS011;6131;56.420;15.548;2022-09-01T15:50:13;0.85;;;0.50;;
12135;SDS011;6131;56.420;15.548;2022-09-01T15:52:46;1.48;;;0.52;;
12135;SDS011;6131;56.420;15.548;2022-09-01T15:55:17;0.40;;;0.40;;
12135;SDS011;6131;56.420;15.548;2022-09-01T15:57:44;1.13;;;0.50;;
12135;SDS011;6131;56.420;15.548;2022-09-01T16:00:11;1.05;;;0.80;;
12135;SDS011;6131;56.420;15.548;2022-09-01T16:02:37;0.70;;;0.70;;
12135;SDS011;6131;56.420;15.548;2022-09-01T16:05:03;0.80;;;0.50;;
12135;SDS011;6131;56.420;15.548;2022-09-01T16:07:30;0.70;;;0.68;;
12135;SDS011;6131;56.420;15.548;2022-09-01T16:09:56;0.52;;;0.50;;
12135;SDS011;6131;56.420;15.548;2022-09-01T16:12:23;1.42;;;0.60;;
12135;SDS011;6131;56.420;15.548;2022-09-01T16:14:50;0.85;;;0.50;;
12135;SDS011;6131;56.420;15.548;2022-09-01T16:19:58;0.88;;;0.68;;
12135;SDS011;6131;56.420;15.548;2022-09-01T16:22:29;0.50;;;0.50;;
12135;SDS011;6131;56.420;15.548;2022-09-01T16:25:01;0.68;;;0.52;;
12135;SDS011;6131;56.420;15.548;2022-09-01T16:27:32;0.55;;;0.55;;
12135;SDS011;6131;56.420;15.548;2022-09-01T16:30:07;0.90;;;0.60;;
12135;SDS011;6131;56.420;15.548;2022-09-01T16:32:34;1.30;;;0.70;;
12135;SDS011;6131;56.420;15.548;2022-09-01T16:35:00;0.63;;;0.60;;
12135;SDS011;6131;56.420;15.548;2022-09-01T16:40:35;1.08;;;0.73;;
12135;SDS011;6131;56.420;15.548;2022-09-01T16:48:11;0.60;;;0.60;;
12135;SDS011;6131;56.420;15.548;2022-09-01T16:56:06;1.52;;;0.80;;
12135;SDS011;6131;56.420;15.548;2022-09-01T17:01:07;0.80;;;0.63;;
12135;SDS011;6131;56.420;15.548;2022-09-01T17:03:39;1.27;;;0.70;;
12135;SDS011;6131;56.420;15.548;2022-09-01T17:08:49;0.60;;;0.50;;
12135;SDS011;6131;56.420;15.548;2022-09-01T17:11:26;0.60;;;0.60;;
12135;SDS011;6131;56.420;15.548;2022-09-01T17:13:57;1.92;;;0.60;;
12135;SDS011;6131;56.420;15.548;2022-09-01T17:16:32;0.55;;;0.50;;
12135;SDS011;6131;56.420;15.548;2022-09-01T17:19:09;0.77;;;0.60;;
12135;SDS011;6131;56.420;15.548;2022-09-01T17:24:18;1.13;;;0.60;;
12135;SDS011;6131;56.420;15.548;2022-09-01T17:26:48;0.90;;;0.60;;
12135;SDS011;6131;56.420;15.548;2022-09-01T17:37:51;0.50;;;0.50;;
12135;SDS011;6131;56.420;15.548;2022-09-01T17:40:20;1.75;;;0.70;;
12135;SDS011;6131;56.420;15.548;2022-09-01T17:43:09;0.93;;;0.67;;
12135;SDS011;6131;56.420;15.548;2022-09-01T17:51:21;0.60;;;0.50;;
12135;SDS011;6131;56.420;15.548;2022-09-01T17:56:49;1.10;;;0.50;;
12135;SDS011;6131;56.420;15.548;2022-09-01T17:59:53;1.63;;;0.70;;
12135;SDS011;6131;56.420;15.548;2022-09-01T18:09:38;1.37;;;0.60;;
12135;SDS011;6131;56.420;15.548;2022-09-01T18:12:09;0.70;;;0.70;;
12135;SDS011;6131;56.420;15.548;2022-09-01T18:14:39;1.63;;;0.70;;
12135;SDS011;6131;56.420;15.548;2022-09-01T18:17:11;0.60;;;0.60;;
12135;SDS011;6131;56.420;15.548;2022-09-01T18:19:40;1.77;;;0.70;;
12135;SDS011;6131;56.420;15.548;2022-09-01T18:22:09;1.00;;;0.80;;
12135;SDS011;6131;56.420;15.548;2022-09-01T18:27:02;0.90;;;0.70;;
12135;SDS011;6131;56.420;15.548;2022-09-01T18:29:28;1.70;;;0.70;;
12135;SDS011;6131;56.420;15.548;2022-09-01T18:34:28;0.60;;;0.60;;
12135;SDS011;6131;56.420;15.548;2022-09-01T18:37:03;1.33;;;0.60;;
12135;SDS011;6131;56.420;15.548;2022-09-01T18:47:13;1.07;;;0.80;;
12135;SDS011;6131;56.420;15.548;2022-09-01T18:55:17;0.80;;;0.80;;
12135;SDS011;6131;56.420;15.548;2022-09-01T18:57:46;2.10;;;0.97;;
12135;SDS011;6131;56.420;15.548;2022-09-01T19:00:16;2.53;;;1.60;;
12135;SDS011;6131;56.420;15.548;2022-09-01T19:03:00;2.30;;;2.03;;
12135;SDS011;6131;56.420;15.548;2022-09-01T19:08:09;2.20;;;2.00;;
12135;SDS011;6131;56.420;15.548;2022-09-01T19:10:42;2.53;;;2.33;;
12135;SDS011;6131;56.420;15.548;2022-09-01T19:13:11;2.80;;;2.37;;
12135;SDS011;6131;56.420;15.548;2022-09-01T19:18:17;1.60;;;1.47;;
12135;SDS011;6131;56.420;15.548;2022-09-01T19:23:22;2.43;;;2.20;;
12135;SDS011;6131;56.420;15.548;2022-09-01T19:25:50;2.57;;;1.97;;
12135;SDS011;6131;56.420;15.548;2022-09-01T19:28:21;3.10;;;2.70;;
12135;SDS011;6131;56.420;15.548;2022-09-01T19:30:51;3.73;;;2.60;;
12135;SDS011;6131;56.420;15.548;2022-09-01T19:33:21;2.83;;;2.53;;
12135;SDS011;6131;56.420;15.548;2022-09-01T19:35:50;3.00;;;2.70;;
12135;SDS011;6131;56.420;15.548;2022-09-01T19:38:20;3.93;;;2.37;;
12135;SDS011;6131;56.420;15.548;2022-09-01T19:40:51;2.83;;;1.97;;
12135;SDS011;6131;56.420;15.548;2022-09-01T19:43:18;1.67;;;1.27;;
12135;SDS011;6131;56.420;15.548;2022-09-01T19:48:21;2.00;;;1.80;;
12135;SDS011;6131;56.420;15.548;2022-09-01T19:58:45;2.57;;;1.20;;
12135;SDS011;6131;56.420;15.548;2022-09-01T20:01:14;1.63;;;1.30;;
12135;SDS011;6131;56.420;15.548;2022-09-01T20:03:56;3.43;;;0.93;;
12135;SDS011;6131;56.420;15.548;2022-09-01T20:08:57;2.73;;;0.90;;
12135;SDS011;6131;56.420;15.548;2022-09-01T20:16:54;1.30;;;1.07;;
12135;SDS011;6131;56.420;15.548;2022-09-01T20:22:15;1.80;;;1.10;;
12135;SDS011;6131;56.420;15.548;2022-09-01T20:24:43;2.20;;;1.10;;
12135;SDS011;6131;56.420;15.548;2022-09-01T20:30:03;1.37;;;1.00;;
12135;SDS011;6131;56.420;15.548;2022-09-01T20:35:05;0.70;;;0.70;;
12135;SDS011;6131;56.420;15.548;2022-09-01T20:37:33;2.13;;;0.90;;
12135;SDS011;6131;56.420;15.548;2022-09-01T20:40:04;1.23;;;0.87;;
12135;SDS011;6131;56.420;15.548;2022-09-01T20:45:16;2.13;;;0.80;;
12135;SDS011;6131;56.420;15.548;2022-09-01T20:47:47;0.90;;;0.77;;
12135;SDS011;6131;56.420;15.548;2022-09-01T20:50:16;2.27;;;0.70;;
12135;SDS011;6131;56.420;15.548;2022-09-01T20:52:47;0.80;;;0.80;;
12135;SDS011;6131;56.420;15.548;2022-09-01T20:55:22;1.27;;;0.70;;
12135;SDS011;6131;56.420;15.548;2022-09-01T20:57:52;0.73;;;0.70;;
12135;SDS011;6131;56.420;15.548;2022-09-01T21:00:22;0.60;;;0.60;;
12135;SDS011;6131;56.420;15.548;2022-09-01T21:10:58;2.10;;;1.13;;
12135;SDS011;6131;56.420;15.548;2022-09-01T21:15:53;0.97;;;0.73;;
12135;SDS011;6131;56.420;15.548;2022-09-01T21:23:32;1.03;;;0.80;;
12135;SDS011;6131;56.420;15.548;2022-09-01T21:25:58;0.83;;;0.70;;
12135;SDS011;6131;56.420;15.548;2022-09-01T21:28:25;1.03;;;0.87;;
12135;SDS011;6131;56.420;15.548;2022-09-01T21:30:52;1.93;;;0.90;;
12135;SDS011;6131;56.420;15.548;2022-09-01T21:33:21;1.03;;;0.63;;
12135;SDS011;6131;56.420;15.548;2022-09-01T21:35:47;4.13;;;0.80;;
12135;SDS011;6131;56.420;15.548;2022-09-01T21:38:13;0.70;;;0.60;;
12135;SDS011;6131;56.420;15.548;2022-09-01T21:40:39;0.70;;;0.60;;
12135;SDS011;6131;56.420;15.548;2022-09-01T21:43:06;1.03;;;0.70;;
12135;SDS011;6131;56.420;15.548;2022-09-01T21:45:34;1.30;;;0.70;;
12135;SDS011;6131;56.420;15.548;2022-09-01T21:48:01;0.70;;;0.70;;
12135;SDS011;6131;56.420;15.548;2022-09-01T21:50:27;0.97;;;0.80;;
12135;SDS011;6131;56.420;15.548;2022-09-01T21:52:53;0.57;;;0.57;;
12135;SDS011;6131;56.420;15.548;2022-09-01T21:55:20;0.70;;;0.60;;
12135;SDS011;6131;56.420;15.548;2022-09-01T21:57:48;1.37;;;0.70;;
12135;SDS011;6131;56.420;15.548;2022-09-01T22:00:15;1.17;;;0.60;;
12135;SDS011;6131;56.420;15.548;2022-09-01T22:02:42;1.70;;;0.57;;
12135;SDS011;6131;56.420;15.548;2022-09-01T22:05:08;1.00;;;0.77;;
12135;SDS011;6131;56.420;15.548;2022-09-01T22:07:35;0.63;;;0.63;;
12135;SDS011;6131;56.420;15.548;2022-09-01T22:10:04;1.27;;;0.93;;
12135;SDS011;6131;56.420;15.548;2022-09-01T22:12:31;4.30;;;1.10;;
12135;SDS011;6131;56.420;15.548;2022-09-01T22:14:57;1.87;;;1.00;;
12135;SDS011;6131;56.420;15.548;2022-09-01T22:17:23;2.63;;;0.90;;
12135;SDS011;6131;56.420;15.548;2022-09-01T22:19:49;1.63;;;1.00;;
12135;SDS011;6131;56.420;15.548;2022-09-01T22:22:16;1.80;;;0.80;;
12135;SDS011;6131;56.420;15.548;2022-09-01T22:24:42;0.93;;;0.70;;
12135;SDS011;6131;56.420;15.548;2022-09-01T22:27:09;1.20;;;0.90;;
12135;SDS011;6131;56.420;15.548;2022-09-01T22:29:35;1.00;;;0.80;;
12135;SDS011;6131;56.420;15.548;2022-09-01T22:32:01;1.40;;;1.00;;
12135;SDS011;6131;56.420;15.548;2022-09-01T22:34:27;1.87;;;1.07;;
12135;SDS011;6131;56.420;15.548;2022-09-01T22:36:53;0.87;;;0.80;;
12135;SDS011;6131;56.420;15.548;2022-09-01T22:39:19;1.07;;;0.73;;
12135;SDS011;6131;56.420;15.548;2022-09-01T22:41:45;1.53;;;0.80;;
12135;SDS011;6131;56.420;15.548;2022-09-01T22:44:11;0.80;;;0.63;;
12135;SDS011;6131;56.420;15.548;2022-09-01T22:46:38;0.87;;;0.70;;
12135;SDS011;6131;56.420;15.548;2022-09-01T22:49:04;1.27;;;0.80;;
12135;SDS011;6131;56.420;15.548;2022-09-01T22:51:31;1.30;;;0.60;;
12135;SDS011;6131;56.420;15.548;2022-09-01T22:53:57;2.67;;;0.80;;
12135;SDS011;6131;56.420;15.548;2022-09-01T22:56:27;1.10;;;0.70;;
12135;SDS011;6131;56.420;15.548;2022-09-01T22:58:54;2.40;;;0.70;;
12135;SDS011;6131;56.420;15.548;2022-09-01T23:01:22;0.90;;;0.60;;
12135;SDS011;6131;56.420;15.548;2022-09-01T23:03:48;1.10;;;0.70;;
12135;SDS011;6131;56.420;15.548;2022-09-01T23:06:16;1.73;;;0.70;;
12135;SDS011;6131;56.420;15.548;2022-09-01T23:08:43;0.90;;;0.70;;
12135;SDS011;6131;56.420;15.548;2022-09-01T23:11:09;1.40;;;0.80;;
12135;SDS011;6131;56.420;15.548;2022-09-01T23:13:36;0.60;;;0.60;;
12135;SDS011;6131;56.420;15.548;2022-09-01T23:16:03;0.80;;;0.50;;
12135;SDS011;6131;56.420;15.548;2022-09-01T23:18:30;2.60;;;0.70;;
12135;SDS011;6131;56.420;15.548;2022-09-01T23:20:56;1.37;;;0.70;;
12135;SDS011;6131;56.420;15.548;2022-09-01T23:23:23;0.60;;;0.60;;
12135;SDS011;6131;56.420;15.548;2022-09-01T23:25:49;0.90;;;0.60;;
12135;SDS011;6131;56.420;15.548;2022-09-01T23:28:16;0.60;;;0.60;;
12135;SDS011;6131;56.420;15.548;2022-09-01T23:30:43;0.60;;;0.60;;
12135;SDS011;6131;56.420;15.548;2022-09-01T23:33:11;2.83;;;0.63;;
12135;SDS011;6131;56.420;15.548;2022-09-01T23:35:40;0.90;;;0.63;;
12135;SDS011;6131;56.420;15.548;2022-09-01T23:38:06;0.77;;;0.63;;
12135;SDS011;6131;56.420;15.548;2022-09-01T23:40:32;1.40;;;0.80;;
12135;SDS011;6131;56.420;15.548;2022-09-01T23:42:58;0.53;;;0.53;;
12135;SDS011;6131;56.420;15.548;2022-09-01T23:45:25;1.30;;;0.80;;
12135;SDS011;6131;56.420;15.548;2022-09-01T23:47:53;0.93;;;0.70;;
12135;SDS011;6131;56.420;15.548;2022-09-01T23:50:19;0.70;;;0.60;;
12135;SDS011;6131;56.420;15.548;2022-09-01T23:52:45;1.00;;;0.70;;
12135;SDS011;6131;56.420;15.548;2022-09-01T23:55:11;0.93;;;0.77;;
12135;SDS011;6131;56.420;15.548;2022-09-01T23:57:37;0.90;;;0.67;;
